Terminal Aerodrome Forecast
Issued by NWS Pocatello, ID

Home | Current Version | Previous Version | Text Only | Print | Product List | Glossary On
Versions: 1 2 3 4 5 6 7 8 9 10 11 12 13
000
FTUS45 KPIH 211700
TAFIDA
TAF
KIDA 211731Z 2118/2218 VRB06KT P6SM SCT120
     FM220700 18008KT P6SM VCSH SCT020 BKN040
     FM221000 19012KT 4SM -SN BR BKN005 BKN015
     FM221500 19016G26KT P6SM -RASN BKN010 OVC020=

USA.gov is the U.S. government's official web portal to all federal, state and local government web resources and services.